Time;durP1;ratioP1;P1;durP2;ratioP2;P2;SDS_P1;SDS_P2;PMS_P1;PMS_P2;Temp;Humidity;BMP_temperature;BMP_pressure;BME280_temperature;BME280_humidity;BME280_pressure;Samples;Min_cycle;Max_cycle;Signal;HPM_P1;HPM_P2
2021/08/04 00:01:03;;;;;;;4.83;3.67;;;;;;;;;;5046840;28;20169;-82
2021/08/04 00:03:29;;;;;;;4.70;4.30;;;;;;;;;;5038818;28;20441;-83
2021/08/04 00:05:55;;;;;;;5.70;3.80;;;;;;;;;;5033346;28;20445;-83
2021/08/04 00:08:21;;;;;;;4.30;3.37;;;;;;;;;;5032491;28;20181;-83
2021/08/04 00:10:47;;;;;;;3.20;2.90;;;;;;;;;;5044375;28;20408;-82
2021/08/04 00:13:13;;;;;;;3.90;3.55;;;;;;;;;;5045932;28;20416;-83
2021/08/04 00:15:40;;;;;;;3.72;3.17;;;;;;;;;;5046666;28;20195;-83
2021/08/04 00:18:06;;;;;;;3.20;2.97;;;;;;;;;;5044557;28;20567;-81
2021/08/04 00:20:32;;;;;;;6.53;3.40;;;;;;;;;;5046151;28;20283;-83
2021/08/04 00:22:58;;;;;;;4.20;3.80;;;;;;;;;;5027054;28;20181;-83
2021/08/04 00:25:24;;;;;;;4.70;3.77;;;;;;;;;;5045058;28;20285;-82
2021/08/04 00:27:50;;;;;;;7.85;3.88;;;;;;;;;;5045751;28;20439;-83
2021/08/04 00:30:16;;;;;;;3.97;3.67;;;;;;;;;;5043094;28;20201;-83
2021/08/04 00:32:42;;;;;;;4.32;3.55;;;;;;;;;;5045882;28;20442;-82
2021/08/04 00:35:08;;;;;;;5.57;3.58;;;;;;;;;;5043971;28;20322;-84
2021/08/04 00:37:34;;;;;;;5.28;4.30;;;;;;;;;;5043041;28;20172;-83
2021/08/04 00:40:00;;;;;;;3.28;2.90;;;;;;;;;;5033206;28;20213;-83
2021/08/04 00:42:26;;;;;;;5.03;4.53;;;;;;;;;;5041174;28;20197;-83
2021/08/04 00:44:53;;;;;;;4.30;3.60;;;;;;;;;;5045504;28;20821;-83
2021/08/04 00:47:19;;;;;;;12.65;3.47;;;;;;;;;;5046226;28;20440;-82
2021/08/04 00:49:46;;;;;;;4.00;3.60;;;;;;;;;;5044226;28;20193;-83
2021/08/04 00:52:12;;;;;;;4.22;3.83;;;;;;;;;;5041838;28;20168;-83
2021/08/04 00:54:38;;;;;;;5.82;3.42;;;;;;;;;;5044038;28;20241;-83
2021/08/04 00:57:04;;;;;;;3.57;3.17;;;;;;;;;;5045542;28;20190;-83
2021/08/04 00:59:30;;;;;;;4.97;3.75;;;;;;;;;;5044120;28;20505;-81
2021/08/04 01:02:10;;;;;;;4.30;3.90;;;;;;;;;;5042819;28;20191;-83
2021/08/04 01:04:41;;;;;;;6.93;3.95;;;;;;;;;;5055260;28;20426;-83
2021/08/04 01:07:22;;;;;;;3.90;3.60;;;;;;;;;;5045079;28;20177;-83
2021/08/04 01:09:49;;;;;;;6.55;3.92;;;;;;;;;;5035227;28;20236;-82
2021/08/04 01:12:23;;;;;;;6.50;4.10;;;;;;;;;;5036117;28;20242;-83
2021/08/04 01:14:50;;;;;;;5.57;3.50;;;;;;;;;;5044403;28;20173;-82
2021/08/04 01:17:18;;;;;;;5.22;3.70;;;;;;;;;;5045018;28;20218;-83
2021/08/04 01:19:46;;;;;;;7.20;4.35;;;;;;;;;;5044257;28;20180;-83
2021/08/04 01:22:25;;;;;;;7.18;4.18;;;;;;;;;;5041261;28;20172;-83
2021/08/04 01:24:56;;;;;;;3.70;3.40;;;;;;;;;;5046802;28;20189;-83
2021/08/04 01:27:23;;;;;;;5.43;3.40;;;;;;;;;;5041263;28;20243;-83
2021/08/04 01:29:49;;;;;;;4.75;3.28;;;;;;;;;;5036821;28;20281;-82
2021/08/04 01:32:16;;;;;;;3.85;3.45;;;;;;;;;;5046890;28;20657;-84
2021/08/04 01:34:43;;;;;;;4.00;3.58;;;;;;;;;;5030116;28;20173;-82
2021/08/04 01:37:09;;;;;;;3.90;3.60;;;;;;;;;;5043160;28;20174;-83
2021/08/04 01:39:35;;;;;;;6.20;4.22;;;;;;;;;;5049615;28;20277;-83
2021/08/04 01:42:02;;;;;;;7.95;3.60;;;;;;;;;;5043890;28;20208;-82
2021/08/04 01:44:29;;;;;;;4.07;3.60;;;;;;;;;;5036590;28;20186;-83
2021/08/04 01:46:55;;;;;;;4.18;3.78;;;;;;;;;;5031513;28;20193;-82
2021/08/04 01:49:21;;;;;;;4.28;3.80;;;;;;;;;;5046034;28;20228;-83
2021/08/04 01:51:49;;;;;;;5.18;3.97;;;;;;;;;;5048882;28;20189;-83
2021/08/04 01:54:16;;;;;;;4.70;3.80;;;;;;;;;;5042896;28;20703;-83
2021/08/04 01:56:43;;;;;;;5.30;4.15;;;;;;;;;;5038393;28;20188;-83
2021/08/04 01:59:09;;;;;;;5.25;4.20;;;;;;;;;;5048552;28;20177;-83
2021/08/04 02:01:36;;;;;;;4.47;3.80;;;;;;;;;;5044816;28;20199;-83
2021/08/04 02:04:02;;;;;;;4.03;3.63;;;;;;;;;;5034023;28;20251;-83
2021/08/04 02:06:35;;;;;;;11.68;4.55;;;;;;;;;;5042062;28;20178;-84
2021/08/04 02:09:12;;;;;;;5.40;3.70;;;;;;;;;;5045104;28;20206;-80
2021/08/04 02:11:56;;;;;;;4.25;3.55;;;;;;;;;;5048738;28;20236;-82
2021/08/04 02:14:27;;;;;;;4.22;3.83;;;;;;;;;;5046681;28;20189;-83
2021/08/04 02:17:07;;;;;;;9.02;3.53;;;;;;;;;;5030971;28;20186;-83
2021/08/04 02:19:39;;;;;;;5.38;3.95;;;;;;;;;;5042119;28;21008;-82
2021/08/04 02:22:31;;;;;;;3.55;3.25;;;;;;;;;;5035330;28;20179;-80
2021/08/04 02:25:08;;;;;;;4.00;3.65;;;;;;;;;;5041568;28;20252;-83
2021/08/04 02:27:36;;;;;;;8.75;4.00;;;;;;;;;;5040134;28;20285;-83
2021/08/04 02:30:03;;;;;;;6.22;4.07;;;;;;;;;;5036285;28;20231;-83
2021/08/04 02:32:29;;;;;;;4.35;3.80;;;;;;;;;;5034788;28;20236;-83
2021/08/04 02:34:55;;;;;;;6.57;3.67;;;;;;;;;;5029655;28;24245;-83
2021/08/04 02:37:21;;;;;;;4.07;3.35;;;;;;;;;;5046080;28;20174;-83
2021/08/04 02:39:47;;;;;;;4.05;3.65;;;;;;;;;;5036611;28;20202;-83
2021/08/04 02:42:13;;;;;;;5.28;3.70;;;;;;;;;;5042033;28;20187;-83
2021/08/04 02:44:39;;;;;;;5.40;3.53;;;;;;;;;;5045073;28;20188;-83
2021/08/04 02:47:05;;;;;;;4.00;3.13;;;;;;;;;;5029502;28;20278;-82
2021/08/04 02:49:31;;;;;;;4.35;3.92;;;;;;;;;;5044527;28;20332;-83
2021/08/04 02:51:57;;;;;;;5.53;3.70;;;;;;;;;;5039633;28;20177;-83
2021/08/04 02:54:23;;;;;;;5.13;3.90;;;;;;;;;;5047053;28;20183;-83
2021/08/04 02:56:49;;;;;;;3.70;2.90;;;;;;;;;;5047807;28;20185;-83
2021/08/04 02:59:15;;;;;;;6.25;3.70;;;;;;;;;;5047246;28;20723;-83
2021/08/04 03:01:41;;;;;;;4.33;3.10;;;;;;;;;;5045305;28;20178;-83
2021/08/04 03:04:07;;;;;;;5.20;3.67;;;;;;;;;;5040501;28;20436;-83
2021/08/04 03:06:33;;;;;;;3.90;3.50;;;;;;;;;;5047132;28;20428;-82
2021/08/04 03:08:59;;;;;;;4.77;3.73;;;;;;;;;;5042226;28;20203;-83
2021/08/04 03:11:25;;;;;;;4.27;3.47;;;;;;;;;;5033900;28;20460;-83
2021/08/04 03:13:51;;;;;;;5.43;3.80;;;;;;;;;;5044283;28;20421;-82
2021/08/04 03:16:17;;;;;;;3.88;3.58;;;;;;;;;;5031029;28;20424;-83
2021/08/04 03:18:43;;;;;;;4.80;3.25;;;;;;;;;;5033416;28;20470;-82
2021/08/04 03:21:10;;;;;;;4.47;3.33;;;;;;;;;;5035079;28;20273;-83
2021/08/04 03:23:36;;;;;;;4.35;3.50;;;;;;;;;;5034104;28;20437;-82
2021/08/04 03:26:02;;;;;;;4.47;3.40;;;;;;;;;;5029570;28;20177;-83
2021/08/04 03:28:28;;;;;;;3.72;3.00;;;;;;;;;;5030147;28;20179;-83
2021/08/04 03:30:54;;;;;;;3.60;3.30;;;;;;;;;;5045411;28;20182;-80
2021/08/04 03:33:20;;;;;;;4.25;3.40;;;;;;;;;;5047649;28;20186;-83
2021/08/04 03:35:46;;;;;;;3.55;3.25;;;;;;;;;;5045416;28;20336;-83
2021/08/04 03:38:12;;;;;;;4.07;3.67;;;;;;;;;;5042457;28;20248;-83
2021/08/04 03:40:38;;;;;;;3.60;3.30;;;;;;;;;;5028589;28;20634;-82
2021/08/04 03:43:04;;;;;;;4.43;3.15;;;;;;;;;;5031354;28;20213;-83
2021/08/04 03:45:30;;;;;;;3.55;3.25;;;;;;;;;;5033316;28;20183;-83
2021/08/04 03:47:56;;;;;;;6.45;3.72;;;;;;;;;;5038528;28;20193;-83
2021/08/04 03:50:22;;;;;;;4.10;3.10;;;;;;;;;;5047025;28;20203;-82
2021/08/04 03:52:48;;;;;;;4.95;3.30;;;;;;;;;;5028785;28;20914;-82
2021/08/04 03:55:14;;;;;;;3.77;3.47;;;;;;;;;;5032874;28;20206;-83
2021/08/04 03:57:41;;;;;;;6.47;3.70;;;;;;;;;;5043132;28;20425;-80
2021/08/04 04:00:07;;;;;;;4.30;3.35;;;;;;;;;;5039419;28;20207;-84
2021/08/04 04:02:33;;;;;;;6.15;3.65;;;;;;;;;;5032462;28;20189;-83
2021/08/04 04:04:59;;;;;;;3.67;3.37;;;;;;;;;;5044140;28;20471;-83
2021/08/04 04:07:25;;;;;;;3.75;3.45;;;;;;;;;;5030305;28;20421;-83
2021/08/04 04:09:51;;;;;;;9.37;3.10;;;;;;;;;;5031018;28;20206;-83
2021/08/04 04:12:17;;;;;;;4.30;3.17;;;;;;;;;;5032912;28;20437;-83
2021/08/04 04:14:43;;;;;;;4.73;3.03;;;;;;;;;;5035305;28;20441;-83
2021/08/04 04:17:09;;;;;;;4.65;3.72;;;;;;;;;;5047675;28;20456;-81
2021/08/04 04:19:35;;;;;;;5.80;3.30;;;;;;;;;;5026705;28;20171;-83
2021/08/04 04:22:01;;;;;;;7.13;3.67;;;;;;;;;;5048371;28;20188;-83
2021/08/04 04:24:27;;;;;;;4.10;3.23;;;;;;;;;;5032950;28;20452;-84
2021/08/04 04:26:53;;;;;;;3.90;3.50;;;;;;;;;;5034093;28;20443;-83
2021/08/04 04:29:19;;;;;;;3.47;2.83;;;;;;;;;;5041769;28;20644;-83
2021/08/04 04:31:45;;;;;;;3.13;2.90;;;;;;;;;;5027802;28;20441;-83
2021/08/04 04:34:11;;;;;;;3.13;2.78;;;;;;;;;;5033127;28;20185;-82
2021/08/04 04:36:37;;;;;;;3.95;3.40;;;;;;;;;;5043813;28;20186;-82
2021/08/04 04:39:03;;;;;;;4.70;3.72;;;;;;;;;;5039330;28;20201;-83
2021/08/04 04:41:29;;;;;;;4.50;3.15;;;;;;;;;;5043188;28;20177;-83
2021/08/04 04:43:55;;;;;;;3.50;3.20;;;;;;;;;;5043829;28;20189;-83
2021/08/04 04:46:21;;;;;;;5.25;3.15;;;;;;;;;;5045561;28;20197;-82
2021/08/04 04:48:47;;;;;;;3.33;3.03;;;;;;;;;;5045952;28;20212;-83
2021/08/04 04:51:13;;;;;;;3.17;2.87;;;;;;;;;;5038613;28;20178;-82
2021/08/04 04:53:39;;;;;;;5.82;3.30;;;;;;;;;;5028821;28;20433;-82
2021/08/04 04:56:06;;;;;;;5.05;3.42;;;;;;;;;;5045934;28;20310;-83
2021/08/04 04:58:31;;;;;;;4.25;3.22;;;;;;;;;;5043825;28;20685;-83
2021/08/04 05:00:57;;;;;;;4.37;3.73;;;;;;;;;;5033163;28;20202;-83
2021/08/04 05:03:24;;;;;;;4.15;3.75;;;;;;;;;;5041257;28;20437;-84
2021/08/04 05:05:49;;;;;;;4.25;3.35;;;;;;;;;;5042746;28;20175;-82
2021/08/04 05:08:15;;;;;;;3.65;3.10;;;;;;;;;;5041090;28;20179;-83
2021/08/04 05:10:41;;;;;;;4.57;4.10;;;;;;;;;;5027462;28;20205;-82
2021/08/04 05:13:07;;;;;;;7.63;3.45;;;;;;;;;;5045158;28;20409;-84
2021/08/04 05:15:33;;;;;;;5.90;4.03;;;;;;;;;;5042468;28;20173;-83
2021/08/04 05:18:00;;;;;;;8.13;3.22;;;;;;;;;;5041863;28;20220;-83
2021/08/04 05:20:26;;;;;;;3.95;3.47;;;;;;;;;;5030867;28;20667;-83
2021/08/04 05:22:52;;;;;;;4.78;2.80;;;;;;;;;;5027160;28;20254;-83
2021/08/04 05:25:18;;;;;;;4.17;3.30;;;;;;;;;;5044426;28;20201;-83
2021/08/04 05:27:44;;;;;;;6.00;3.03;;;;;;;;;;5040846;28;20560;-83
2021/08/04 05:30:12;;;;;;;4.10;3.30;;;;;;;;;;5044934;28;20464;-83
2021/08/04 05:32:38;;;;;;;3.28;3.00;;;;;;;;;;5042514;28;20176;-82
2021/08/04 05:35:04;;;;;;;4.00;3.05;;;;;;;;;;5030103;28;20233;-82
2021/08/04 05:37:30;;;;;;;5.07;3.80;;;;;;;;;;5026853;28;20168;-83
2021/08/04 05:39:56;;;;;;;3.53;3.23;;;;;;;;;;5030493;28;20228;-83
2021/08/04 05:42:22;;;;;;;4.03;3.60;;;;;;;;;;5031325;28;20509;-83
2021/08/04 05:44:48;;;;;;;3.13;2.83;;;;;;;;;;5032582;28;20457;-82
2021/08/04 05:47:16;;;;;;;4.73;3.50;;;;;;;;;;5043983;28;20185;-83
2021/08/04 05:49:42;;;;;;;4.05;3.10;;;;;;;;;;5025431;28;20465;-83
2021/08/04 05:52:08;;;;;;;4.53;3.30;;;;;;;;;;5045273;28;20170;-83
2021/08/04 05:54:34;;;;;;;2.92;2.70;;;;;;;;;;5035191;28;20187;-83
2021/08/04 05:57:00;;;;;;;3.53;3.17;;;;;;;;;;5031588;28;20624;-83
2021/08/04 05:59:25;;;;;;;4.40;3.25;;;;;;;;;;5046244;28;20438;-83
2021/08/04 06:01:51;;;;;;;4.70;2.60;;;;;;;;;;5043856;28;20208;-83
2021/08/04 06:04:17;;;;;;;3.40;3.07;;;;;;;;;;5043372;28;20435;-83
2021/08/04 06:06:43;;;;;;;3.80;3.27;;;;;;;;;;5036895;28;20468;-83
2021/08/04 06:09:09;;;;;;;4.72;3.35;;;;;;;;;;5040827;28;20495;-83
2021/08/04 06:11:35;;;;;;;3.60;3.07;;;;;;;;;;5048364;28;20181;-83
2021/08/04 06:14:01;;;;;;;5.45;3.55;;;;;;;;;;5048770;28;20463;-83
2021/08/04 06:16:27;;;;;;;4.37;4.07;;;;;;;;;;5046962;28;20617;-83
2021/08/04 06:18:53;;;;;;;5.95;3.40;;;;;;;;;;5048446;28;20484;-83
2021/08/04 06:21:20;;;;;;;4.43;3.55;;;;;;;;;;5045228;28;20207;-83
2021/08/04 06:23:48;;;;;;;4.50;3.20;;;;;;;;;;5045232;28;20612;-82
2021/08/04 06:26:15;;;;;;;4.18;3.70;;;;;;;;;;5034228;28;20181;-83
2021/08/04 06:28:41;;;;;;;4.47;3.67;;;;;;;;;;5045994;28;20204;-82
2021/08/04 06:31:07;;;;;;;7.18;4.10;;;;;;;;;;5042643;28;20668;-83
2021/08/04 06:33:33;;;;;;;4.83;3.00;;;;;;;;;;5046325;28;20185;-83
2021/08/04 06:35:59;;;;;;;4.17;3.70;;;;;;;;;;5042093;28;20437;-83
2021/08/04 06:38:25;;;;;;;7.10;4.00;;;;;;;;;;5033570;28;20527;-83
2021/08/04 06:40:51;;;;;;;5.20;3.60;;;;;;;;;;5030349;28;20862;-83
2021/08/04 06:43:17;;;;;;;5.40;3.20;;;;;;;;;;5046212;28;20448;-83
2021/08/04 06:45:44;;;;;;;4.03;3.47;;;;;;;;;;5048020;28;20181;-84
2021/08/04 06:48:10;;;;;;;5.38;3.75;;;;;;;;;;5048004;28;20182;-83
2021/08/04 06:50:37;;;;;;;4.82;4.32;;;;;;;;;;5044688;28;20217;-82
2021/08/04 06:53:03;;;;;;;5.72;3.40;;;;;;;;;;5031521;28;20212;-83
2021/08/04 06:55:29;;;;;;;3.78;3.40;;;;;;;;;;5045789;28;20204;-83
2021/08/04 06:57:55;;;;;;;4.80;4.27;;;;;;;;;;5047639;28;20257;-83
2021/08/04 07:00:21;;;;;;;3.80;3.37;;;;;;;;;;5047663;28;20432;-83
2021/08/04 07:02:49;;;;;;;4.53;3.90;;;;;;;;;;5046012;28;20432;-83
2021/08/04 07:05:17;;;;;;;4.25;3.83;;;;;;;;;;5033325;28;20231;-83
2021/08/04 07:07:43;;;;;;;5.03;4.22;;;;;;;;;;5027397;28;20175;-83
2021/08/04 07:10:09;;;;;;;4.45;3.25;;;;;;;;;;5035344;28;20631;-83
2021/08/04 07:12:35;;;;;;;3.55;3.20;;;;;;;;;;5043612;28;20680;-83
2021/08/04 07:15:01;;;;;;;4.80;3.97;;;;;;;;;;5047300;28;20177;-83
2021/08/04 07:17:27;;;;;;;4.70;3.70;;;;;;;;;;5044743;28;20468;-83
2021/08/04 07:19:53;;;;;;;5.32;3.65;;;;;;;;;;5028683;28;20194;-83
2021/08/04 07:22:19;;;;;;;6.00;4.03;;;;;;;;;;5046060;28;20174;-83
2021/08/04 07:24:45;;;;;;;4.30;3.13;;;;;;;;;;5046672;28;20277;-83
2021/08/04 07:27:11;;;;;;;4.93;3.90;;;;;;;;;;5041500;28;20441;-82
2021/08/04 07:29:37;;;;;;;3.58;3.25;;;;;;;;;;5033469;28;20538;-82
2021/08/04 07:32:04;;;;;;;4.20;3.20;;;;;;;;;;5044214;28;20182;-83
2021/08/04 07:34:30;;;;;;;4.97;3.80;;;;;;;;;;5040728;28;20427;-83
2021/08/04 07:36:56;;;;;;;5.57;3.45;;;;;;;;;;5029419;28;20178;-82
2021/08/04 07:39:22;;;;;;;5.25;3.97;;;;;;;;;;5042417;28;20194;-83
2021/08/04 07:41:48;;;;;;;4.30;3.20;;;;;;;;;;5044966;28;20170;-84
2021/08/04 07:44:14;;;;;;;4.18;3.33;;;;;;;;;;5042031;28;20192;-82
2021/08/04 07:46:40;;;;;;;3.85;3.55;;;;;;;;;;5028788;28;20175;-82
2021/08/04 07:49:06;;;;;;;3.55;3.25;;;;;;;;;;5040415;28;20617;-83
2021/08/04 07:51:32;;;;;;;3.80;3.50;;;;;;;;;;5043983;28;20208;-83
2021/08/04 07:53:58;;;;;;;6.00;3.93;;;;;;;;;;5045456;28;20458;-83
2021/08/04 07:56:24;;;;;;;3.53;3.20;;;;;;;;;;5046825;28;20430;-83
2021/08/04 07:58:51;;;;;;;4.90;4.00;;;;;;;;;;5028805;28;20448;-82
2021/08/04 08:01:17;;;;;;;4.78;3.70;;;;;;;;;;5040258;28;20427;-83
2021/08/04 08:03:43;;;;;;;5.05;3.72;;;;;;;;;;5039500;28;20326;-82
2021/08/04 08:06:10;;;;;;;5.10;3.78;;;;;;;;;;5039934;28;20177;-82
2021/08/04 08:08:36;;;;;;;4.75;4.20;;;;;;;;;;5046781;28;20225;-83
2021/08/04 08:11:04;;;;;;;5.25;4.15;;;;;;;;;;5043421;28;20264;-83
2021/08/04 08:13:31;;;;;;;5.95;3.90;;;;;;;;;;5039604;28;20161;-82
2021/08/04 08:15:57;;;;;;;3.90;3.30;;;;;;;;;;5032339;28;20178;-80
2021/08/04 08:18:23;;;;;;;4.60;3.47;;;;;;;;;;5035563;28;20221;-83
2021/08/04 08:20:49;;;;;;;5.40;3.67;;;;;;;;;;5046438;28;20444;-83
2021/08/04 08:23:15;;;;;;;5.85;3.85;;;;;;;;;;5044417;28;20504;-83
2021/08/04 08:25:41;;;;;;;5.13;3.63;;;;;;;;;;5043447;28;20214;-83
2021/08/04 08:28:08;;;;;;;3.30;3.00;;;;;;;;;;5046255;28;20166;-83
2021/08/04 08:30:35;;;;;;;3.60;3.03;;;;;;;;;;5036648;28;20237;-83
2021/08/04 08:33:02;;;;;;;5.20;3.47;;;;;;;;;;5038279;28;20237;-82
2021/08/04 08:35:30;;;;;;;4.13;3.65;;;;;;;;;;5045282;28;20174;-83
2021/08/04 08:37:56;;;;;;;3.65;3.20;;;;;;;;;;5043541;28;20251;-83
2021/08/04 08:40:22;;;;;;;4.03;3.07;;;;;;;;;;5043595;28;20206;-83
2021/08/04 08:42:48;;;;;;;4.78;3.58;;;;;;;;;;5045550;28;20415;-83
2021/08/04 08:45:14;;;;;;;3.45;3.15;;;;;;;;;;5040289;28;20214;-82
2021/08/04 08:47:41;;;;;;;4.60;3.13;;;;;;;;;;5035144;28;20187;-83
2021/08/04 08:50:07;;;;;;;5.47;3.05;;;;;;;;;;5046734;28;20206;-81
2021/08/04 08:52:33;;;;;;;3.35;2.97;;;;;;;;;;5043453;28;20634;-82
2021/08/04 08:55:01;;;;;;;6.13;3.60;;;;;;;;;;5045629;28;20181;-83
2021/08/04 08:57:27;;;;;;;7.22;3.20;;;;;;;;;;5043191;28;20187;-83
2021/08/04 08:59:57;;;;;;;5.45;3.10;;;;;;;;;;5040650;28;20448;-83
2021/08/04 09:02:23;;;;;;;4.60;2.90;;;;;;;;;;5028531;28;20184;-82
2021/08/04 09:04:58;;;;;;;4.00;3.03;;;;;;;;;;5041916;28;20188;-83
2021/08/04 09:07:34;;;;;;;3.67;3.38;;;;;;;;;;5044771;28;20397;-84
2021/08/04 09:10:01;;;;;;;4.63;2.97;;;;;;;;;;5055297;28;20644;-82
2021/08/04 09:12:27;;;;;;;3.50;3.20;;;;;;;;;;5045409;28;20187;-83
2021/08/04 09:14:53;;;;;;;3.97;3.57;;;;;;;;;;5045008;28;20182;-83
2021/08/04 09:17:19;;;;;;;3.70;3.30;;;;;;;;;;5045045;28;20474;-82
2021/08/04 09:19:46;;;;;;;3.92;3.55;;;;;;;;;;5042601;28;20429;-82
2021/08/04 09:22:12;;;;;;;4.38;3.58;;;;;;;;;;5039094;28;20177;-83
2021/08/04 09:24:54;;;;;;;3.70;3.40;;;;;;;;;;5036052;28;20187;-83
2021/08/04 09:27:20;;;;;;;5.25;2.97;;;;;;;;;;5038993;28;20449;-85
2021/08/04 09:29:58;;;;;;;6.18;3.03;;;;;;;;;;5044768;28;20207;-84
2021/08/04 09:32:28;;;;;;;3.75;3.25;;;;;;;;;;5031959;28;21063;-85
2021/08/04 09:34:55;;;;;;;7.03;3.40;;;;;;;;;;5028098;28;20195;-83
2021/08/04 09:37:21;;;;;;;6.32;4.07;;;;;;;;;;5044943;28;20195;-83
2021/08/04 09:39:53;;;;;;;5.30;4.32;;;;;;;;;;5034442;28;20564;-83
2021/08/04 09:42:20;;;;;;;7.35;3.60;;;;;;;;;;5037170;28;20175;-83
2021/08/04 09:44:51;;;;;;;3.70;3.35;;;;;;;;;;5036083;28;20277;-84
2021/08/04 09:47:18;;;;;;;3.35;2.70;;;;;;;;;;5048212;28;20225;-84
2021/08/04 09:49:54;;;;;;;5.38;3.35;;;;;;;;;;5046046;28;20202;-83
2021/08/04 09:52:20;;;;;;;2.90;2.10;;;;;;;;;;5031583;28;20171;-84
2021/08/04 09:54:45;;;;;;;4.00;2.70;;;;;;;;;;5044426;28;20217;-83
2021/08/04 09:57:12;;;;;;;3.50;2.70;;;;;;;;;;5044623;28;20926;-84
2021/08/04 09:59:39;;;;;;;4.03;2.75;;;;;;;;;;5036383;28;20483;-83
2021/08/04 10:02:05;;;;;;;3.08;2.78;;;;;;;;;;5046872;28;20200;-82
2021/08/04 10:04:34;;;;;;;3.33;2.92;;;;;;;;;;5025789;28;20175;-84
2021/08/04 10:07:05;;;;;;;2.70;2.50;;;;;;;;;;5049050;28;20199;-82
2021/08/04 10:09:30;;;;;;;2.58;2.38;;;;;;;;;;5047049;28;20264;-83
2021/08/04 10:11:57;;;;;;;4.13;2.80;;;;;;;;;;5049374;28;20199;-83
2021/08/04 10:14:23;;;;;;;4.50;3.20;;;;;;;;;;5043496;28;20442;-83
2021/08/04 10:16:50;;;;;;;3.38;3.08;;;;;;;;;;5027397;28;20653;-82
2021/08/04 10:19:17;;;;;;;2.80;2.60;;;;;;;;;;5031953;28;20200;-83
2021/08/04 10:21:46;;;;;;;3.53;3.20;;;;;;;;;;5037303;28;20214;-83
2021/08/04 10:24:13;;;;;;;3.25;2.95;;;;;;;;;;5038689;28;20607;-83
2021/08/04 10:26:39;;;;;;;6.47;3.25;;;;;;;;;;5046897;28;20199;-83
2021/08/04 10:29:06;;;;;;;3.03;2.72;;;;;;;;;;5030906;28;20445;-82
2021/08/04 10:31:32;;;;;;;2.30;2.10;;;;;;;;;;5040743;28;20208;-82
2021/08/04 10:33:58;;;;;;;2.60;2.40;;;;;;;;;;5045103;28;20285;-83
2021/08/04 10:36:29;;;;;;;4.25;2.80;;;;;;;;;;5047911;28;20216;-82
2021/08/04 10:38:57;;;;;;;3.03;2.83;;;;;;;;;;5047468;28;20235;-82
2021/08/04 10:41:25;;;;;;;4.07;3.05;;;;;;;;;;5046178;28;20185;-83
2021/08/04 10:43:55;;;;;;;3.67;2.97;;;;;;;;;;5028133;28;20252;-83
2021/08/04 10:46:33;;;;;;;3.47;3.03;;;;;;;;;;5045827;28;20537;-81
2021/08/04 10:49:05;;;;;;;2.58;2.30;;;;;;;;;;5036145;28;20709;-82
2021/08/04 10:51:32;;;;;;;3.30;3.00;;;;;;;;;;5035404;28;20204;-82
2021/08/04 10:54:01;;;;;;;3.30;3.00;;;;;;;;;;5039115;28;20590;-82
2021/08/04 10:56:34;;;;;;;4.28;3.55;;;;;;;;;;5046004;28;20178;-83
2021/08/04 10:59:12;;;;;;;4.03;3.00;;;;;;;;;;5030529;28;20228;-83
2021/08/04 11:01:39;;;;;;;3.70;2.95;;;;;;;;;;5029476;28;20234;-82
2021/08/04 11:04:06;;;;;;;3.53;3.10;;;;;;;;;;5028747;28;20267;-83
2021/08/04 11:06:33;;;;;;;3.50;3.10;;;;;;;;;;5041951;28;20214;-82
2021/08/04 11:09:17;;;;;;;3.83;3.53;;;;;;;;;;5047396;28;20174;-83
2021/08/04 11:11:54;;;;;;;3.35;3.05;;;;;;;;;;5046714;28;20189;-84
2021/08/04 11:14:35;;;;;;;5.45;2.88;;;;;;;;;;5031695;28;20228;-84
2021/08/04 11:17:01;;;;;;;3.17;2.90;;;;;;;;;;5031286;28;20235;-84
2021/08/04 11:19:36;;;;;;;3.45;2.90;;;;;;;;;;5046202;28;20180;-84
2021/08/04 11:22:17;;;;;;;4.03;3.10;;;;;;;;;;5041571;28;20194;-84
2021/08/04 11:24:53;;;;;;;4.13;3.72;;;;;;;;;;5039519;28;20184;-84
2021/08/04 11:27:19;;;;;;;4.25;3.85;;;;;;;;;;5045844;28;20177;-82
2021/08/04 11:29:46;;;;;;;6.18;3.75;;;;;;;;;;5041339;28;20210;-83
2021/08/04 11:32:16;;;;;;;5.25;4.07;;;;;;;;;;5047421;28;20181;-84
2021/08/04 11:34:42;;;;;;;4.68;4.28;;;;;;;;;;5044812;28;20177;-85
2021/08/04 11:37:08;;;;;;;5.83;4.97;;;;;;;;;;5047708;28;20273;-86
2021/08/04 11:39:34;;;;;;;4.77;3.60;;;;;;;;;;5047128;28;20419;-85
2021/08/04 11:42:05;;;;;;;5.63;4.07;;;;;;;;;;5045156;28;20440;-84
2021/08/04 11:44:31;;;;;;;5.50;4.20;;;;;;;;;;5044549;28;20451;-86
2021/08/04 11:47:05;;;;;;;9.93;5.60;;;;;;;;;;5029159;28;20201;-86
2021/08/04 11:49:39;;;;;;;6.18;4.65;;;;;;;;;;5040329;28;20197;-87
2021/08/04 11:52:08;;;;;;;7.05;6.05;;;;;;;;;;5035023;28;20185;-87
2021/08/04 11:54:36;;;;;;;6.80;5.13;;;;;;;;;;5041558;28;20193;-85
2021/08/04 11:57:02;;;;;;;6.90;5.45;;;;;;;;;;5043839;28;20225;-85
2021/08/04 11:59:29;;;;;;;6.85;4.80;;;;;;;;;;5046390;28;20177;-84
2021/08/04 12:02:00;;;;;;;6.20;4.25;;;;;;;;;;5046040;28;20200;-84
2021/08/04 12:04:26;;;;;;;8.07;4.50;;;;;;;;;;5043722;28;20186;-85
2021/08/04 12:06:59;;;;;;;6.82;4.65;;;;;;;;;;5034962;28;20186;-85
2021/08/04 12:09:26;;;;;;;6.63;5.88;;;;;;;;;;5032347;28;20213;-84
2021/08/04 12:11:53;;;;;;;8.65;6.10;;;;;;;;;;5036663;28;20174;-84
2021/08/04 12:14:20;;;;;;;8.85;5.50;;;;;;;;;;5046210;28;20188;-85
2021/08/04 12:16:47;;;;;;;9.32;7.82;;;;;;;;;;5043804;28;20167;-85
2021/08/04 12:19:31;;;;;;;9.55;6.80;;;;;;;;;;5039303;28;20182;-83
2021/08/04 12:21:58;;;;;;;8.38;6.25;;;;;;;;;;5045425;28;20186;-85
2021/08/04 12:24:24;;;;;;;7.82;6.55;;;;;;;;;;5045794;28;20341;-84
2021/08/04 12:26:50;;;;;;;10.65;7.90;;;;;;;;;;5044393;28;20177;-85
2021/08/04 12:29:17;;;;;;;11.13;7.15;;;;;;;;;;5026376;28;20217;-85
2021/08/04 12:32:04;;;;;;;8.25;6.70;;;;;;;;;;5040144;28;20168;-85
2021/08/04 12:34:31;;;;;;;7.95;6.57;;;;;;;;;;5039702;28;20198;-85
2021/08/04 12:36:57;;;;;;;7.93;7.07;;;;;;;;;;5046226;28;20205;-84
2021/08/04 12:39:30;;;;;;;9.40;6.65;;;;;;;;;;5040378;28;20188;-85
2021/08/04 12:41:56;;;;;;;9.73;7.03;;;;;;;;;;5037039;28;20191;-83
2021/08/04 12:44:23;;;;;;;7.68;6.65;;;;;;;;;;5043795;28;20190;-85
2021/08/04 12:46:49;;;;;;;6.85;5.70;;;;;;;;;;5043508;28;20292;-85
2021/08/04 12:49:26;;;;;;;7.65;5.90;;;;;;;;;;5045058;28;20228;-85
2021/08/04 12:51:55;;;;;;;8.30;5.68;;;;;;;;;;5043427;28;20699;-85
2021/08/04 12:54:31;;;;;;;6.05;5.40;;;;;;;;;;5042529;28;20213;-85
2021/08/04 12:56:58;;;;;;;6.68;5.07;;;;;;;;;;5045409;28;20190;-84
2021/08/04 12:59:24;;;;;;;10.65;5.95;;;;;;;;;;5045790;28;20565;-85
2021/08/04 13:02:07;;;;;;;7.00;5.75;;;;;;;;;;5043803;28;20188;-84
2021/08/04 13:04:33;;;;;;;8.38;5.00;;;;;;;;;;5043070;28;20181;-85
2021/08/04 13:07:07;;;;;;;5.63;4.80;;;;;;;;;;5045053;28;20201;-84
2021/08/04 13:09:42;;;;;;;6.30;5.10;;;;;;;;;;5045242;28;20210;-85
2021/08/04 13:12:25;;;;;;;9.05;5.57;;;;;;;;;;5045175;28;20200;-85
2021/08/04 13:15:00;;;;;;;5.40;4.90;;;;;;;;;;5043406;28;20530;-84
2021/08/04 13:17:27;;;;;;;9.77;5.40;;;;;;;;;;5047249;28;20240;-85
2021/08/04 13:20:08;;;;;;;8.90;5.72;;;;;;;;;;5030936;28;20205;-84
2021/08/04 13:22:51;;;;;;;8.45;5.25;;;;;;;;;;5038910;28;20634;-82
2021/08/04 13:25:17;;;;;;;6.03;5.10;;;;;;;;;;5031103;28;20220;-84
2021/08/04 13:27:56;;;;;;;5.87;5.27;;;;;;;;;;5037647;28;20416;-85
2021/08/04 13:30:24;;;;;;;5.00;4.33;;;;;;;;;;5041789;28;20491;-84
2021/08/04 13:32:50;;;;;;;6.30;5.80;;;;;;;;;;5049545;28;20433;-84
2021/08/04 13:35:17;;;;;;;6.13;4.70;;;;;;;;;;5044514;28;20456;-84
2021/08/04 13:37:43;;;;;;;5.33;4.80;;;;;;;;;;5047595;28;20897;-82
2021/08/04 13:40:10;;;;;;;5.63;4.70;;;;;;;;;;5036296;28;20407;-84
2021/08/04 13:42:37;;;;;;;5.73;4.83;;;;;;;;;;5046148;28;20407;-84
2021/08/04 13:45:06;;;;;;;5.43;4.93;;;;;;;;;;5048184;28;20490;-84
2021/08/04 13:47:32;;;;;;;5.40;4.70;;;;;;;;;;5050061;28;20419;-84
2021/08/04 13:50:03;;;;;;;6.40;4.70;;;;;;;;;;5046527;28;20458;-83
2021/08/04 13:52:29;;;;;;;4.60;4.20;;;;;;;;;;5047446;28;20415;-84
2021/08/04 13:54:58;;;;;;;6.20;4.80;;;;;;;;;;5047783;28;20490;-83
2021/08/04 13:57:24;;;;;;;4.95;4.45;;;;;;;;;;5042578;28;20412;-83
2021/08/04 13:59:50;;;;;;;6.00;4.20;;;;;;;;;;5033975;28;20190;-84
2021/08/04 14:02:16;;;;;;;6.40;4.83;;;;;;;;;;5047953;28;20459;-84
2021/08/04 14:04:42;;;;;;;6.93;4.97;;;;;;;;;;5028892;28;20447;-83
2021/08/04 14:07:09;;;;;;;7.43;6.73;;;;;;;;;;5035312;28;20423;-84
2021/08/04 14:09:35;;;;;;;5.57;4.40;;;;;;;;;;5041551;28;20498;-83
2021/08/04 14:12:01;;;;;;;5.30;4.45;;;;;;;;;;5036364;28;20584;-83
2021/08/04 14:14:27;;;;;;;5.47;4.43;;;;;;;;;;5032550;28;20190;-84
2021/08/04 14:16:53;;;;;;;5.45;4.15;;;;;;;;;;5047403;28;20178;-84
2021/08/04 14:19:19;;;;;;;5.15;4.70;;;;;;;;;;5033108;28;20663;-84
2021/08/04 14:21:45;;;;;;;5.25;4.30;;;;;;;;;;5044302;28;20727;-84
2021/08/04 14:24:11;;;;;;;3.70;3.40;;;;;;;;;;5045094;28;20189;-84
2021/08/04 14:26:37;;;;;;;4.00;3.60;;;;;;;;;;5046191;28;20907;-83
2021/08/04 14:29:04;;;;;;;4.90;3.90;;;;;;;;;;5045977;28;20185;-84
2021/08/04 14:31:30;;;;;;;5.22;4.20;;;;;;;;;;5030018;28;20171;-84
2021/08/04 14:33:57;;;;;;;4.70;4.20;;;;;;;;;;5034152;28;20208;-83
2021/08/04 14:36:23;;;;;;;5.75;4.85;;;;;;;;;;5040195;28;20186;-84
2021/08/04 14:38:49;;;;;;;8.30;5.15;;;;;;;;;;5044979;28;20186;-84
2021/08/04 14:41:15;;;;;;;6.07;5.50;;;;;;;;;;5034495;28;20189;-83
2021/08/04 14:43:41;;;;;;;7.82;5.13;;;;;;;;;;5045992;28;20232;-82
2021/08/04 14:46:07;;;;;;;4.60;4.20;;;;;;;;;;5046960;28;20178;-84